This is the latest recevied weather packets stored in our database for station/object DL1YAU. If no packets are shown the sender has not sent any weather packets the latest 10 day(s).
| Time | Temp. | Humidity | Pressure | Rain* | Wind** | Luminosity | Snow |
|---|---|---|---|---|---|---|---|
| 1777583051 | 11.11° C | 52% | - | 0 mm | - | 0 W/m² | - |
| 1777580652 | 11.67° C | 51% | - | 0 mm | - | 0 W/m² | - |
| 1777574655 | 13.89° C | 44% | - | 0 mm | - | 7 W/m² | - |
| 1777572255 | 14.44° C | 42% | - | 0 mm | - | 56 W/m² | - |
| 1777566854 | 15.56° C | 38% | - | 0 mm | - | 230 W/m² | - |
| 1777565054 | 16.67° C | 37% | - | 0 mm | - | 334 W/m² | - |
| 1777560253 | 16.67° C | 36% | - | 0 mm | - | 531 W/m² | - |
| 1777557253 | 16.67° C | 33% | - | 0 mm | - | 621 W/m² | - |
| 1777556053 | 16.11° C | 33% | - | 0 mm | - | 647 W/m² | - |
| 1777545252 | 13.33° C | 35% | - | 0 mm | - | 742 W/m² | - |
| 1777535050 | 9.44° C | 40% | - | 0 mm | - | 508 W/m² | - |
| 1777532650 | 8.33° C | 43% | - | 0 mm | - | 418 W/m² | - |
| 1777527850 | 4.44° C | 52% | - | 0 mm | - | 220 W/m² | - |
| 1777524250 | 3.89° C | 53% | - | 0 mm | - | 19 W/m² | - |
| 1777519453 | 4.44° C | 51% | - | 0 mm | - | 0 W/m² | - |
| 1777515253 | 5.56° C | 50% | - | 0 mm | - | 0 W/m² | - |
| 1777512253 | 6.11° C | 50% | - | 0 mm | - | 0 W/m² | - |
| 1777510452 | 6.67° C | 49% | - | 0 mm | - | 0 W/m² | - |
| 1777507452 | 6.67° C | 49% | - | 0 mm | - | 0 W/m² | - |
| 1777500852 | 7.78° C | 49% | - | 0 mm | - | 0 W/m² | - |
| 1777497251 | 8.33° C | 49% | - | 0 mm | - | 0 W/m² | - |
| 1777496651 | 8.33° C | 49% | - | 0 mm | - | 0 W/m² | - |
| 1777496051 | 8.33° C | 49% | - | 0 mm | - | 0 W/m² | - |
| 1777495451 | 8.89° C | 48% | - | 0 mm | - | 0 W/m² | - |
| 1777485855 | 11.67° C | 40% | - | 0 mm | - | 54 W/m² | - |
* Rain latest hour (hover to see other rain measurements)
** Current wind speed in m/s (hover to see current wind gust speed)